createdAt,value
2023-02-14T00:01:45.737Z,7.90
2023-02-14T00:04:13.712Z,7.93
2023-02-14T00:06:41.391Z,8.17
2023-02-14T00:09:12.744Z,9.67
2023-02-14T00:11:40.747Z,8.07
2023-02-14T00:14:26.855Z,8.13
2023-02-14T00:16:54.399Z,7.20
2023-02-14T00:19:23.043Z,7.33
2023-02-14T00:21:51.188Z,6.90
2023-02-14T00:24:21.215Z,8.33
2023-02-14T00:26:49.186Z,9.37
2023-02-14T00:29:20.054Z,7.53
2023-02-14T00:31:47.672Z,10.40
2023-02-14T00:34:16.520Z,6.37
2023-02-14T00:36:44.730Z,6.13
2023-02-14T00:39:13.913Z,8.00
2023-02-14T00:41:42.299Z,8.20
2023-02-14T00:44:11.042Z,6.60
2023-02-14T00:46:39.947Z,9.80
2023-02-14T00:49:07.551Z,8.60
2023-02-14T00:51:34.724Z,9.03
2023-02-14T00:54:03.429Z,9.47
2023-02-14T00:56:32.164Z,8.43
2023-02-14T00:58:59.382Z,8.37
2023-02-14T01:01:27.453Z,11.17
2023-02-14T01:03:55.055Z,9.17
2023-02-14T01:06:22.421Z,11.70
2023-02-14T01:08:50.070Z,9.75
2023-02-14T01:11:20.424Z,7.97
2023-02-14T01:13:49.936Z,9.97
2023-02-14T01:16:22.491Z,9.30
2023-02-14T01:18:50.318Z,6.67
2023-02-14T01:21:23.589Z,8.30
2023-02-14T01:23:54.377Z,7.53
2023-02-14T01:26:23.700Z,6.13
2023-02-14T01:28:50.905Z,7.60
2023-02-14T01:31:21.181Z,9.60
2023-02-14T01:33:49.941Z,7.07
2023-02-14T01:36:18.584Z,9.97
2023-02-14T01:38:45.962Z,10.77
2023-02-14T01:41:13.149Z,8.63
2023-02-14T01:43:58.902Z,6.90
2023-02-14T01:46:29.831Z,7.07
2023-02-14T01:49:27.163Z,12.93
2023-02-14T01:52:03.829Z,9.13
2023-02-14T01:54:33.457Z,10.77
2023-02-14T01:57:05.174Z,8.93
2023-02-14T01:59:42.500Z,14.73
2023-02-14T02:02:10.797Z,10.80
2023-02-14T02:04:43.641Z,10.83
2023-02-14T02:07:15.118Z,8.13
2023-02-14T02:09:49.594Z,7.83
2023-02-14T02:12:16.796Z,10.40
2023-02-14T02:14:44.471Z,10.00
2023-02-14T02:17:21.360Z,9.30
2023-02-14T02:20:00.568Z,10.60
2023-02-14T02:22:49.235Z,10.27
2023-02-14T02:25:53.507Z,6.87
2023-02-14T02:28:26.928Z,10.77
2023-02-14T02:31:15.097Z,10.27
2023-02-14T02:34:16.415Z,10.60
2023-02-14T02:37:16.025Z,10.70
2023-02-14T02:40:01.072Z,7.37
2023-02-14T02:42:43.845Z,7.63
2023-02-14T02:45:34.456Z,7.37
2023-02-14T02:48:23.465Z,12.63
2023-02-14T02:51:14.385Z,14.70
2023-02-14T02:54:09.460Z,8.13
2023-02-14T02:56:46.966Z,7.07
2023-02-14T02:59:42.939Z,10.03
2023-02-14T03:02:19.652Z,7.87
2023-02-14T03:04:57.159Z,8.40
2023-02-14T03:07:39.874Z,7.77
2023-02-14T03:10:18.795Z,8.00
2023-02-14T03:13:16.384Z,7.57
2023-02-14T03:16:21.151Z,6.90
2023-02-14T03:19:26.432Z,8.40
2023-02-14T03:22:21.135Z,6.27
2023-02-14T03:25:08.627Z,7.87
2023-02-14T03:27:49.769Z,9.07
2023-02-14T03:30:19.701Z,7.73
2023-02-14T03:33:04.758Z,8.27
2023-02-14T03:35:45.731Z,10.60
2023-02-14T03:38:27.885Z,8.53
2023-02-14T03:41:09.385Z,10.60
2023-02-14T03:43:49.781Z,9.50
2023-02-14T03:46:39.116Z,8.57
2023-02-14T03:49:12.411Z,7.47
2023-02-14T03:51:41.408Z,9.33
2023-02-14T03:54:11.173Z,8.77
2023-02-14T03:56:45.629Z,8.90
2023-02-14T03:59:19.606Z,7.53
2023-02-14T04:02:01.770Z,8.90
2023-02-14T04:04:35.613Z,9.50
2023-02-14T04:07:11.401Z,6.50
2023-02-14T04:09:38.852Z,8.60
2023-02-14T04:12:06.397Z,8.33
2023-02-14T04:14:33.691Z,8.87
2023-02-14T04:17:19.736Z,7.00
2023-02-14T04:19:47.081Z,6.73
2023-02-14T04:22:14.211Z,6.03
2023-02-14T04:24:41.428Z,6.10
2023-02-14T04:27:11.238Z,6.70
2023-02-14T04:29:40.678Z,8.17
2023-02-14T04:32:10.741Z,7.23
2023-02-14T04:34:38.672Z,8.67
2023-02-14T04:37:06.566Z,8.70
2023-02-14T04:39:34.063Z,5.70
2023-02-14T04:42:01.335Z,7.93
2023-02-14T04:44:28.558Z,10.67
2023-02-14T04:46:56.388Z,6.00
2023-02-14T04:49:23.814Z,6.97
2023-02-14T04:51:51.006Z,8.13
2023-02-14T04:54:18.241Z,13.50
2023-02-14T04:56:45.327Z,9.73
2023-02-14T04:59:12.589Z,7.83
2023-02-14T05:01:39.786Z,8.50
2023-02-14T05:04:07.417Z,8.83
2023-02-14T05:06:34.604Z,6.97
2023-02-14T05:09:02.033Z,8.00
2023-02-14T05:11:30.384Z,8.43
2023-02-14T05:13:57.531Z,8.97
2023-02-14T05:16:25.218Z,6.43
2023-02-14T05:18:52.400Z,6.80
2023-02-14T05:21:19.525Z,7.07
2023-02-14T05:23:46.780Z,7.93
2023-02-14T05:26:13.942Z,5.97
2023-02-14T05:28:41.224Z,6.67
2023-02-14T05:31:09.475Z,8.20
2023-02-14T05:33:36.748Z,7.67
2023-02-14T05:36:04.677Z,8.17
2023-02-14T05:38:33.528Z,6.97
2023-02-14T05:41:01.632Z,8.17
2023-02-14T05:43:30.340Z,7.77
2023-02-14T05:45:58.144Z,7.33
2023-02-14T05:48:25.430Z,5.73
2023-02-14T05:50:52.732Z,6.70
2023-02-14T05:53:20.212Z,6.27
2023-02-14T05:55:47.935Z,6.93
2023-02-14T05:58:15.033Z,6.97
2023-02-14T06:00:42.350Z,4.93
2023-02-14T06:03:09.552Z,6.43
2023-02-14T06:05:36.859Z,6.37
2023-02-14T06:08:03.975Z,8.67
2023-02-14T06:10:31.311Z,5.80
2023-02-14T06:12:58.383Z,4.40
2023-02-14T06:15:25.914Z,4.83
2023-02-14T06:17:57.512Z,6.43
2023-02-14T06:20:25.353Z,5.83
2023-02-14T06:22:53.082Z,5.57
2023-02-14T06:25:20.905Z,7.10
2023-02-14T06:27:49.333Z,5.70
2023-02-14T06:30:18.188Z,6.23
2023-02-14T06:32:45.276Z,5.17
2023-02-14T06:35:13.898Z,9.13
2023-02-14T06:37:42.268Z,6.63
2023-02-14T06:40:10.752Z,9.67
2023-02-14T06:42:38.559Z,6.87
2023-02-14T06:45:06.618Z,8.27
2023-02-14T06:47:35.146Z,9.13
2023-02-14T06:50:05.313Z,10.97
2023-02-14T06:52:33.886Z,10.73
2023-02-14T06:55:01.062Z,9.57
2023-02-14T06:57:28.386Z,9.27
2023-02-14T06:59:55.751Z,7.37
2023-02-14T07:02:25.056Z,8.60
2023-02-14T07:04:52.404Z,7.67
2023-02-14T07:07:19.553Z,6.80
2023-02-14T07:09:46.611Z,5.43
2023-02-14T07:12:13.949Z,7.17
2023-02-14T07:14:41.241Z,9.60
2023-02-14T07:17:08.398Z,12.83
2023-02-14T07:19:35.633Z,7.27
2023-02-14T07:22:02.980Z,9.33
2023-02-14T07:24:30.155Z,10.93
2023-02-14T07:26:59.570Z,11.87
2023-02-14T07:29:26.667Z,9.73
2023-02-14T07:31:53.956Z,13.37
2023-02-14T07:34:21.114Z,11.60
2023-02-14T07:36:48.236Z,11.93
2023-02-14T07:39:15.420Z,12.50
2023-02-14T07:41:42.572Z,12.83
2023-02-14T07:44:10.776Z,14.20
2023-02-14T07:46:37.975Z,12.63
2023-02-14T07:49:05.170Z,10.87
2023-02-14T07:51:32.460Z,12.00
2023-02-14T07:53:59.540Z,11.67
2023-02-14T07:56:26.767Z,10.57
2023-02-14T07:58:53.878Z,10.13
2023-02-14T08:01:21.330Z,9.73
2023-02-14T08:03:51.754Z,9.23
2023-02-14T08:06:20.438Z,9.53
2023-02-14T08:08:48.391Z,12.03
2023-02-14T08:11:35.617Z,11.17
2023-02-14T08:14:04.140Z,9.90
2023-02-14T08:16:34.381Z,18.00
2023-02-14T08:19:02.330Z,11.50
2023-02-14T08:21:30.108Z,16.50
2023-02-14T08:23:57.712Z,10.80
2023-02-14T08:26:25.166Z,9.87
2023-02-14T08:28:52.436Z,15.37
2023-02-14T08:31:35.534Z,15.03
2023-02-14T08:34:05.226Z,14.10
2023-02-14T08:36:33.242Z,20.57
2023-02-14T08:39:00.607Z,16.13
2023-02-14T08:41:27.779Z,12.90
2023-02-14T08:43:54.954Z,17.40
2023-02-14T08:46:22.289Z,14.23
2023-02-14T08:48:50.390Z,20.20
2023-02-14T08:51:17.771Z,15.87
2023-02-14T08:53:46.408Z,21.03
2023-02-14T08:56:14.964Z,14.03
2023-02-14T08:58:43.047Z,17.83
2023-02-14T09:01:12.277Z,13.53
2023-02-14T09:03:40.005Z,14.47
2023-02-14T09:06:14.685Z,16.90
2023-02-14T09:08:41.915Z,15.20
2023-02-14T09:11:15.810Z,15.67
2023-02-14T09:13:43.557Z,16.63
2023-02-14T09:16:12.947Z,18.93
2023-02-14T09:18:40.780Z,20.33
2023-02-14T09:21:14.004Z,14.03
2023-02-14T09:23:41.376Z,19.63
2023-02-14T09:26:10.738Z,20.20
2023-02-14T09:28:39.011Z,17.47
2023-02-14T09:31:13.698Z,13.73
2023-02-14T09:33:41.725Z,15.47
2023-02-14T09:36:28.350Z,12.90
2023-02-14T09:38:55.573Z,10.83
2023-02-14T09:41:28.600Z,12.50
2023-02-14T09:44:27.820Z,11.93
2023-02-14T09:46:59.568Z,11.60
2023-02-14T09:49:37.473Z,17.83
2023-02-14T09:52:09.765Z,14.80
2023-02-14T09:54:37.801Z,11.70
2023-02-14T09:57:47.271Z,13.90
2023-02-14T10:00:26.776Z,14.52
2023-02-14T10:03:35.254Z,15.52
2023-02-14T10:06:17.734Z,11.77
2023-02-14T10:08:50.777Z,13.70
2023-02-14T10:11:22.616Z,12.63
2023-02-14T10:13:59.681Z,13.83
2023-02-14T10:16:33.650Z,11.82
2023-02-14T10:19:22.386Z,15.00
2023-02-14T10:21:52.884Z,16.52
2023-02-14T10:24:35.871Z,19.27
2023-02-14T10:27:21.063Z,17.48
2023-02-14T10:29:48.707Z,11.52
2023-02-14T10:32:25.213Z,11.20
2023-02-14T10:34:57.325Z,9.30
2023-02-14T10:37:46.370Z,12.13
2023-02-14T10:40:41.356Z,10.90
2023-02-14T10:43:30.410Z,13.13
2023-02-14T10:46:08.767Z,9.75
2023-02-14T10:48:54.086Z,10.35
2023-02-14T10:51:46.736Z,14.95
2023-02-14T10:54:29.115Z,12.10
2023-02-14T10:57:03.500Z,13.02
2023-02-14T10:59:46.697Z,12.80
2023-02-14T11:02:16.774Z,17.33
2023-02-14T11:04:46.736Z,11.63
2023-02-14T11:07:15.795Z,20.60
2023-02-14T11:09:43.014Z,16.25
2023-02-14T11:12:10.758Z,13.90
2023-02-14T11:14:40.072Z,11.35
2023-02-14T11:17:30.855Z,19.80
2023-02-14T11:20:07.320Z,11.77
2023-02-14T11:22:35.571Z,11.57
2023-02-14T11:25:23.432Z,15.20
2023-02-14T11:27:57.866Z,11.27
2023-02-14T11:30:41.362Z,10.95
2023-02-14T11:33:23.042Z,15.48
2023-02-14T11:35:54.241Z,17.15
2023-02-14T11:38:35.925Z,15.00
2023-02-14T11:41:04.870Z,12.70
2023-02-14T11:43:35.557Z,15.75
2023-02-14T11:46:14.450Z,14.25
2023-02-14T11:49:00.280Z,18.33
2023-02-14T11:51:41.903Z,15.15
2023-02-14T11:54:14.491Z,12.05
2023-02-14T11:57:02.043Z,15.90
2023-02-14T11:59:37.195Z,12.75
2023-02-14T12:02:26.635Z,10.32
2023-02-14T12:04:58.920Z,9.38
2023-02-14T12:07:31.158Z,12.80
2023-02-14T12:10:18.685Z,11.10
2023-02-14T12:12:49.083Z,11.00
2023-02-14T12:15:28.011Z,12.63
2023-02-14T12:18:33.909Z,11.98
2023-02-14T12:21:24.153Z,16.95
2023-02-14T12:24:07.583Z,14.95
2023-02-14T12:26:37.705Z,15.30
2023-02-14T12:29:10.478Z,14.88
2023-02-14T12:31:37.782Z,12.20
2023-02-14T12:34:05.336Z,10.45
2023-02-14T12:36:44.389Z,15.50
2023-02-14T12:39:32.040Z,9.00
2023-02-14T12:42:23.577Z,9.20
2023-02-14T12:45:16.823Z,13.27
2023-02-14T12:48:15.186Z,13.63
2023-02-14T12:51:07.192Z,14.02
2023-02-14T12:53:49.624Z,18.13
2023-02-14T12:56:31.569Z,12.68
2023-02-14T12:59:31.385Z,13.25
2023-02-14T13:02:32.479Z,11.55
2023-02-14T13:05:18.244Z,10.80
2023-02-14T13:07:51.463Z,9.18
2023-02-14T13:10:31.274Z,6.85
2023-02-14T13:13:08.287Z,12.30
2023-02-14T13:15:53.236Z,10.23
2023-02-14T13:18:46.263Z,9.90
2023-02-14T13:21:20.045Z,10.35
2023-02-14T13:23:48.926Z,11.85
2023-02-14T13:26:36.893Z,7.57
2023-02-14T13:29:13.036Z,9.38
2023-02-14T13:31:41.508Z,12.88
2023-02-14T13:34:26.252Z,8.18
2023-02-14T13:36:56.092Z,9.48
2023-02-14T13:39:34.352Z,10.90
2023-02-14T13:42:06.055Z,8.07
2023-02-14T13:44:46.598Z,9.18
2023-02-14T13:47:27.291Z,7.53
2023-02-14T13:50:02.339Z,11.23
2023-02-14T13:52:45.083Z,11.95
2023-02-14T13:55:34.139Z,8.32
2023-02-14T13:58:01.512Z,10.65
2023-02-14T14:00:52.301Z,9.43
2023-02-14T14:03:28.959Z,9.02
2023-02-14T14:06:10.956Z,6.53
2023-02-14T14:08:41.253Z,8.80
2023-02-14T14:11:27.484Z,9.00
2023-02-14T14:14:04.481Z,11.45
2023-02-14T14:16:35.335Z,8.38
2023-02-14T14:19:07.272Z,10.88
2023-02-14T14:21:39.224Z,10.75
2023-02-14T14:24:12.571Z,8.80
2023-02-14T14:26:48.303Z,9.73
2023-02-14T14:29:38.513Z,12.23
2023-02-14T14:32:21.719Z,9.45
2023-02-14T14:34:54.360Z,10.65
2023-02-14T14:37:24.648Z,7.68
2023-02-14T14:39:54.408Z,12.02
2023-02-14T14:42:23.853Z,8.90
2023-02-14T14:44:55.835Z,8.52
2023-02-14T14:47:27.079Z,11.73
2023-02-14T14:50:03.687Z,10.32
2023-02-14T14:52:35.925Z,11.88
2023-02-14T14:55:05.176Z,11.68
2023-02-14T14:57:35.379Z,12.98
2023-02-14T15:00:21.577Z,11.55
2023-02-14T15:03:04.526Z,14.50
2023-02-14T15:05:37.953Z,11.15
2023-02-14T15:08:30.905Z,12.02
2023-02-14T15:11:09.753Z,12.50
2023-02-14T15:13:50.817Z,13.93
2023-02-14T15:16:41.881Z,11.60
2023-02-14T15:19:12.925Z,11.27
2023-02-14T15:21:44.770Z,15.80
2023-02-14T15:24:16.208Z,10.95
2023-02-14T15:26:45.973Z,13.77
2023-02-14T15:29:21.407Z,12.98
2023-02-14T15:31:49.631Z,15.63
2023-02-14T15:34:19.561Z,13.15
2023-02-14T15:36:52.304Z,13.82
2023-02-14T15:39:22.541Z,13.88
2023-02-14T15:41:55.574Z,13.02
2023-02-14T15:44:25.294Z,14.57
2023-02-14T15:47:01.568Z,13.82
2023-02-14T15:49:38.447Z,13.77
2023-02-14T15:52:06.484Z,15.32
2023-02-14T15:54:38.453Z,17.38
2023-02-14T15:57:08.249Z,14.32
2023-02-14T15:59:36.913Z,14.90
2023-02-14T16:02:25.586Z,13.07
2023-02-14T16:04:52.998Z,12.45
2023-02-14T16:07:26.692Z,12.73
2023-02-14T16:10:22.414Z,12.30
2023-02-14T16:13:04.329Z,11.75
2023-02-14T16:15:34.295Z,9.80
2023-02-14T16:18:08.183Z,13.27
2023-02-14T16:20:43.678Z,11.10
2023-02-14T16:23:29.782Z,15.70
2023-02-14T16:25:59.581Z,9.82
2023-02-14T16:28:31.250Z,13.77
2023-02-14T16:31:02.938Z,14.32
2023-02-14T16:33:35.437Z,11.60
2023-02-14T16:36:18.020Z,9.82
2023-02-14T16:38:45.846Z,12.98
2023-02-14T16:41:20.660Z,12.90
2023-02-14T16:43:48.543Z,14.43
2023-02-14T16:46:18.310Z,10.32
2023-02-14T16:48:45.797Z,12.25
2023-02-14T16:51:14.311Z,11.40
2023-02-14T16:53:42.909Z,13.00
2023-02-14T16:56:17.605Z,16.20
2023-02-14T16:58:45.490Z,21.00
2023-02-14T17:01:12.748Z,10.68
2023-02-14T17:03:42.513Z,11.43
2023-02-14T17:06:17.227Z,12.57
2023-02-14T17:08:45.885Z,11.30
2023-02-14T17:11:13.232Z,17.42
2023-02-14T17:13:44.551Z,13.77
2023-02-14T17:16:15.672Z,9.05
2023-02-14T17:18:49.003Z,11.07
2023-02-14T17:21:20.033Z,10.80
2023-02-14T17:23:48.514Z,10.77
2023-02-14T17:26:17.993Z,9.52
2023-02-14T17:28:46.576Z,11.85
2023-02-14T17:31:14.231Z,11.23
2023-02-14T17:33:41.686Z,10.55
2023-02-14T17:36:12.099Z,11.85
2023-02-14T17:38:40.388Z,8.38
2023-02-14T17:41:16.584Z,11.20
2023-02-14T17:43:43.972Z,11.25
2023-02-14T17:46:11.215Z,13.50
2023-02-14T17:48:38.396Z,9.63
2023-02-14T17:51:07.188Z,9.85
2023-02-14T17:53:35.829Z,9.00
2023-02-14T17:56:12.136Z,14.40
2023-02-14T17:58:39.591Z,10.40
2023-02-14T18:01:09.196Z,16.25
2023-02-14T18:03:36.996Z,10.15
2023-02-14T18:06:05.058Z,13.68
2023-02-14T18:08:35.112Z,9.27
2023-02-14T18:11:11.289Z,12.60
2023-02-14T18:13:39.508Z,9.48
2023-02-14T18:16:12.960Z,13.40
2023-02-14T18:18:40.772Z,9.48
2023-02-14T18:21:10.008Z,8.57
2023-02-14T18:23:37.715Z,10.73
2023-02-14T18:26:08.122Z,9.50
2023-02-14T18:28:36.473Z,8.75
2023-02-14T18:31:15.862Z,13.35
2023-02-14T18:33:44.329Z,11.80
2023-02-14T18:36:13.783Z,9.10
2023-02-14T18:38:43.439Z,11.10
2023-02-14T18:41:13.372Z,8.68
2023-02-14T18:43:41.466Z,7.97
2023-02-14T18:46:11.095Z,11.07
2023-02-14T18:48:38.593Z,9.90
2023-02-14T18:51:17.439Z,9.35
2023-02-14T18:53:46.105Z,12.85
2023-02-14T18:56:18.191Z,9.85
2023-02-14T18:58:48.779Z,14.70
2023-02-14T19:01:18.966Z,11.10
2023-02-14T19:03:46.734Z,10.27
2023-02-14T19:06:13.970Z,8.55
2023-02-14T19:08:41.537Z,11.13
2023-02-14T19:11:13.901Z,9.45
2023-02-14T19:13:46.043Z,10.30
2023-02-14T19:16:15.596Z,9.10
2023-02-14T19:18:43.384Z,8.63
2023-02-14T19:21:11.791Z,5.38
2023-02-14T19:23:39.311Z,7.28
2023-02-14T19:26:15.313Z,5.85
2023-02-14T19:28:43.123Z,8.43
2023-02-14T19:31:10.531Z,6.05
2023-02-14T19:33:43.304Z,11.68
2023-02-14T19:36:12.969Z,9.70
2023-02-14T19:38:45.106Z,7.10
2023-02-14T19:41:30.261Z,5.63
2023-02-14T19:43:59.046Z,8.55
2023-02-14T19:46:28.017Z,9.77
2023-02-14T19:48:59.032Z,11.02
2023-02-14T19:51:29.354Z,10.27
2023-02-14T19:53:58.082Z,9.82
2023-02-14T19:56:31.475Z,9.50
2023-02-14T19:58:59.480Z,9.60
2023-02-14T20:01:34.178Z,13.27
2023-02-14T20:04:01.544Z,9.60
2023-02-14T20:06:31.340Z,12.57
2023-02-14T20:08:58.974Z,8.40
2023-02-14T20:11:35.788Z,8.93
2023-02-14T20:14:04.899Z,9.98
2023-02-14T20:16:33.621Z,9.40
2023-02-14T20:19:02.956Z,12.05
2023-02-14T20:21:30.093Z,10.88
2023-02-14T20:24:02.091Z,14.52
2023-02-14T20:26:34.703Z,9.13
2023-02-14T20:29:04.307Z,10.13
2023-02-14T20:31:36.057Z,10.77
2023-02-14T20:34:03.792Z,11.70
2023-02-14T20:36:31.146Z,16.00
2023-02-14T20:39:00.671Z,8.80
2023-02-14T20:41:28.631Z,9.15
2023-02-14T20:44:03.311Z,9.48
2023-02-14T20:46:32.433Z,11.52
2023-02-14T20:48:59.698Z,8.20
2023-02-14T20:51:27.079Z,9.75
2023-02-14T20:53:54.510Z,11.07
2023-02-14T20:56:24.140Z,10.43
2023-02-14T20:58:51.435Z,9.98
2023-02-14T21:01:21.545Z,11.63
2023-02-14T21:03:51.430Z,11.48
2023-02-14T21:06:21.836Z,9.10
2023-02-14T21:08:49.961Z,11.75
2023-02-14T21:11:18.946Z,8.30
2023-02-14T21:13:46.505Z,9.93
2023-02-14T21:16:16.766Z,11.52
2023-02-14T21:18:48.114Z,10.63
2023-02-14T21:21:20.194Z,11.40
2023-02-14T21:23:51.669Z,9.45
2023-02-14T21:26:21.434Z,8.00
2023-02-14T21:28:48.598Z,8.38
2023-02-14T21:31:18.104Z,8.73
2023-02-14T21:33:45.500Z,10.07
2023-02-14T21:36:15.676Z,7.63
2023-02-14T21:38:43.326Z,9.07
2023-02-14T21:41:13.694Z,9.55
2023-02-14T21:43:45.545Z,8.50
2023-02-14T21:46:17.639Z,6.85
2023-02-14T21:49:04.848Z,8.57
2023-02-14T21:51:32.714Z,9.30
2023-02-14T21:54:02.550Z,7.43
2023-02-14T21:56:29.862Z,11.82
2023-02-14T21:58:57.211Z,8.90
2023-02-14T22:01:29.610Z,9.20
2023-02-14T22:03:57.046Z,10.18
2023-02-14T22:06:25.966Z,9.35
2023-02-14T22:08:57.795Z,9.05
2023-02-14T22:11:27.550Z,8.57
2023-02-14T22:13:55.511Z,11.10
2023-02-14T22:16:24.689Z,9.68
2023-02-14T22:18:52.514Z,8.27
2023-02-14T22:21:23.394Z,10.27
2023-02-14T22:23:51.034Z,11.10
2023-02-14T22:26:43.409Z,8.88
2023-02-14T22:29:12.526Z,8.90
2023-02-14T22:31:42.763Z,7.07
2023-02-14T22:34:13.013Z,9.13
2023-02-14T22:36:40.343Z,11.00
2023-02-14T22:39:07.561Z,9.15
2023-02-14T22:41:37.890Z,7.57
2023-02-14T22:44:06.076Z,8.75
2023-02-14T22:46:33.866Z,9.20
2023-02-14T22:49:00.976Z,12.13
2023-02-14T22:51:29.927Z,7.53
2023-02-14T22:54:09.214Z,9.30
2023-02-14T22:56:39.775Z,7.47
2023-02-14T22:59:13.132Z,9.02
2023-02-14T23:01:40.577Z,8.15
2023-02-14T23:04:07.814Z,8.90
2023-02-14T23:06:36.895Z,6.43
2023-02-14T23:09:06.848Z,7.05
2023-02-14T23:11:35.864Z,7.57
2023-02-14T23:14:22.272Z,6.82
2023-02-14T23:17:08.814Z,10.18
2023-02-14T23:19:55.829Z,7.05
2023-02-14T23:22:22.999Z,5.97
2023-02-14T23:24:52.090Z,7.45
2023-02-14T23:27:21.880Z,7.80
2023-02-14T23:29:49.525Z,7.10
2023-02-14T23:32:17.191Z,7.97
2023-02-14T23:34:45.293Z,6.82
2023-02-14T23:37:13.821Z,9.23
2023-02-14T23:39:41.778Z,6.07
2023-02-14T23:42:12.330Z,6.28
2023-02-14T23:44:40.080Z,4.75
2023-02-14T23:47:08.853Z,6.90
2023-02-14T23:49:37.625Z,5.70
2023-02-14T23:52:07.998Z,6.22
2023-02-14T23:54:35.738Z,5.93
2023-02-14T23:57:04.078Z,6.22
2023-02-14T23:59:31.268Z,6.10
